Terminal Aerodrome Forecast
Issued by NWS Charleston, WV

Current Version | Previous Version | Graphics & Text | Print | Product List | Glossary Off
Versions: 1 2 3 4 5 6 7 8 9 10 11 12 13 14 15 16 17 18 19 20 21 22

000
FTUS41 KRLX 171720
TAFBKW
TAF
KBKW 171720Z 1718/1818 19004KT P6SM OVC080
     FM172000 18005KT P6SM -RA OVC060
     FM180000 19003KT P6SM OVC040
     FM180200 20003KT P6SM OVC030
     FM180800 23003KT P6SM -DZ OVC015
     FM180900 24003KT P6SM -DZ OVC008
     FM181500 25005KT P6SM OVC010=

USA.gov is the U.S. government's official web portal to all federal, state and local government web resources and services.